sensor_id;sensor_type;location;lat;lon;timestamp;P1;durP1;ratioP1;P2;durP2;ratioP2
25509;SDS011;13413;52.336;21.200;2023-04-01T00:01:59;29.00;;;21.50;;
25509;SDS011;13413;52.336;21.200;2023-04-01T00:05:07;29.60;;;20.20;;
25509;SDS011;13413;52.336;21.200;2023-04-01T00:08:05;28.50;;;20.40;;
25509;SDS011;13413;52.336;21.200;2023-04-01T00:10:59;28.30;;;21.20;;
25509;SDS011;13413;52.336;21.200;2023-04-01T00:13:53;28.10;;;21.30;;
25509;SDS011;13413;52.336;21.200;2023-04-01T00:16:47;31.50;;;21.40;;
25509;SDS011;13413;52.336;21.200;2023-04-01T00:19:41;33.30;;;23.10;;
25509;SDS011;13413;52.336;21.200;2023-04-01T00:22:34;31.10;;;22.00;;
25509;SDS011;13413;52.336;21.200;2023-04-01T00:25:28;31.40;;;22.50;;
25509;SDS011;13413;52.336;21.200;2023-04-01T00:28:22;31.80;;;24.20;;
25509;SDS011;13413;52.336;21.200;2023-04-01T00:31:16;32.90;;;23.30;;
25509;SDS011;13413;52.336;21.200;2023-04-01T00:34:10;34.60;;;23.80;;
25509;SDS011;13413;52.336;21.200;2023-04-01T00:37:04;32.40;;;23.10;;
25509;SDS011;13413;52.336;21.200;2023-04-01T00:40:00;33.40;;;24.60;;
25509;SDS011;13413;52.336;21.200;2023-04-01T00:42:54;32.90;;;23.60;;
25509;SDS011;13413;52.336;21.200;2023-04-01T00:45:49;31.10;;;23.50;;
25509;SDS011;13413;52.336;21.200;2023-04-01T00:48:44;31.80;;;23.90;;
25509;SDS011;13413;52.336;21.200;2023-04-01T00:51:40;32.40;;;25.20;;
25509;SDS011;13413;52.336;21.200;2023-04-01T00:54:36;36.60;;;25.40;;
25509;SDS011;13413;52.336;21.200;2023-04-01T00:57:34;33.40;;;26.00;;
25509;SDS011;13413;52.336;21.200;2023-04-01T01:00:29;34.30;;;25.70;;
25509;SDS011;13413;52.336;21.200;2023-04-01T01:03:24;33.00;;;26.10;;
25509;SDS011;13413;52.336;21.200;2023-04-01T01:06:22;37.10;;;27.60;;
25509;SDS011;13413;52.336;21.200;2023-04-01T01:09:28;41.20;;;28.10;;
25509;SDS011;13413;52.336;21.200;2023-04-01T01:12:30;42.80;;;29.20;;
25509;SDS011;13413;52.336;21.200;2023-04-01T01:15:32;35.20;;;28.00;;
25509;SDS011;13413;52.336;21.200;2023-04-01T01:18:33;39.00;;;29.00;;
25509;SDS011;13413;52.336;21.200;2023-04-01T01:21:35;41.10;;;30.00;;
25509;SDS011;13413;52.336;21.200;2023-04-01T01:24:45;42.30;;;30.60;;
25509;SDS011;13413;52.336;21.200;2023-04-01T01:27:55;41.90;;;29.90;;
25509;SDS011;13413;52.336;21.200;2023-04-01T01:30:56;43.30;;;31.00;;
25509;SDS011;13413;52.336;21.200;2023-04-01T01:34:00;39.30;;;29.20;;
25509;SDS011;13413;52.336;21.200;2023-04-01T01:37:05;38.50;;;28.40;;
25509;SDS011;13413;52.336;21.200;2023-04-01T01:40:04;39.50;;;29.50;;
25509;SDS011;13413;52.336;21.200;2023-04-01T01:43:02;38.10;;;30.30;;
25509;SDS011;13413;52.336;21.200;2023-04-01T01:46:00;34.30;;;28.00;;
25509;SDS011;13413;52.336;21.200;2023-04-01T02:06:30;40.50;;;31.00;;
25509;SDS011;13413;52.336;21.200;2023-04-01T02:09:28;45.40;;;32.40;;
25509;SDS011;13413;52.336;21.200;2023-04-01T02:15:16;39.10;;;31.00;;
25509;SDS011;13413;52.336;21.200;2023-04-01T02:18:13;41.90;;;31.80;;
25509;SDS011;13413;52.336;21.200;2023-04-01T02:21:10;43.20;;;31.20;;
25509;SDS011;13413;52.336;21.200;2023-04-01T02:24:08;40.90;;;32.20;;
25509;SDS011;13413;52.336;21.200;2023-04-01T02:27:06;39.10;;;29.70;;
25509;SDS011;13413;52.336;21.200;2023-04-01T02:30:01;39.30;;;31.90;;
25509;SDS011;13413;52.336;21.200;2023-04-01T02:32:56;42.90;;;31.60;;
25509;SDS011;13413;52.336;21.200;2023-04-01T02:35:50;42.50;;;30.30;;
25509;SDS011;13413;52.336;21.200;2023-04-01T02:38:44;39.40;;;30.50;;
25509;SDS011;13413;52.336;21.200;2023-04-01T02:41:40;42.80;;;31.70;;
25509;SDS011;13413;52.336;21.200;2023-04-01T02:44:35;41.90;;;31.90;;
25509;SDS011;13413;52.336;21.200;2023-04-01T02:47:30;43.10;;;31.30;;
25509;SDS011;13413;52.336;21.200;2023-04-01T02:50:23;39.40;;;30.90;;
25509;SDS011;13413;52.336;21.200;2023-04-01T02:53:18;45.50;;;33.70;;
25509;SDS011;13413;52.336;21.200;2023-04-01T02:56:11;38.30;;;30.50;;
25509;SDS011;13413;52.336;21.200;2023-04-01T02:59:05;45.20;;;32.30;;
25509;SDS011;13413;52.336;21.200;2023-04-01T03:02:00;41.30;;;32.00;;
25509;SDS011;13413;52.336;21.200;2023-04-01T03:04:54;46.00;;;34.30;;
25509;SDS011;13413;52.336;21.200;2023-04-01T03:07:48;42.00;;;32.70;;
25509;SDS011;13413;52.336;21.200;2023-04-01T03:10:42;45.40;;;34.10;;
25509;SDS011;13413;52.336;21.200;2023-04-01T03:13:36;43.90;;;34.00;;
25509;SDS011;13413;52.336;21.200;2023-04-01T03:16:31;47.40;;;35.40;;
25509;SDS011;13413;52.336;21.200;2023-04-01T03:19:38;49.00;;;36.10;;
25509;SDS011;13413;52.336;21.200;2023-04-01T03:22:32;48.60;;;37.30;;
25509;SDS011;13413;52.336;21.200;2023-04-01T03:25:26;50.50;;;38.30;;
25509;SDS011;13413;52.336;21.200;2023-04-01T03:28:20;48.40;;;38.30;;
25509;SDS011;13413;52.336;21.200;2023-04-01T03:31:15;52.70;;;39.30;;
25509;SDS011;13413;52.336;21.200;2023-04-01T03:34:09;47.80;;;36.90;;
25509;SDS011;13413;52.336;21.200;2023-04-01T03:37:03;51.20;;;38.60;;
25509;SDS011;13413;52.336;21.200;2023-04-01T03:39:56;53.30;;;38.60;;
25509;SDS011;13413;52.336;21.200;2023-04-01T03:42:50;55.90;;;37.50;;
25509;SDS011;13413;52.336;21.200;2023-04-01T03:45:45;53.60;;;39.10;;
25509;SDS011;13413;52.336;21.200;2023-04-01T03:48:43;48.50;;;37.30;;
25509;SDS011;13413;52.336;21.200;2023-04-01T03:51:37;49.00;;;35.50;;
25509;SDS011;13413;52.336;21.200;2023-04-01T03:54:32;42.90;;;32.60;;
25509;SDS011;13413;52.336;21.200;2023-04-01T03:57:27;48.50;;;34.30;;
25509;SDS011;13413;52.336;21.200;2023-04-01T04:00:23;41.00;;;31.60;;
25509;SDS011;13413;52.336;21.200;2023-04-01T04:03:16;45.60;;;32.20;;
25509;SDS011;13413;52.336;21.200;2023-04-01T04:06:12;38.00;;;31.20;;
25509;SDS011;13413;52.336;21.200;2023-04-01T04:09:06;43.10;;;31.20;;
25509;SDS011;13413;52.336;21.200;2023-04-01T04:23:21;46.10;;;34.30;;
25509;SDS011;13413;52.336;21.200;2023-04-01T04:26:15;55.00;;;37.00;;
25509;SDS011;13413;52.336;21.200;2023-04-01T04:29:09;53.70;;;38.00;;
25509;SDS011;13413;52.336;21.200;2023-04-01T04:32:03;50.10;;;37.20;;
25509;SDS011;13413;52.336;21.200;2023-04-01T04:34:57;51.30;;;38.40;;
25509;SDS011;13413;52.336;21.200;2023-04-01T04:37:51;50.00;;;37.60;;
25509;SDS011;13413;52.336;21.200;2023-04-01T04:40:45;51.10;;;37.10;;
25509;SDS011;13413;52.336;21.200;2023-04-01T04:43:40;49.60;;;36.60;;
25509;SDS011;13413;52.336;21.200;2023-04-01T04:46:40;47.40;;;35.10;;
25509;SDS011;13413;52.336;21.200;2023-04-01T04:49:34;48.50;;;36.30;;
25509;SDS011;13413;52.336;21.200;2023-04-01T04:52:28;44.70;;;35.10;;
25509;SDS011;13413;52.336;21.200;2023-04-01T04:55:23;50.70;;;34.50;;
25509;SDS011;13413;52.336;21.200;2023-04-01T04:58:18;45.60;;;35.00;;
25509;SDS011;13413;52.336;21.200;2023-04-01T05:01:13;46.10;;;33.00;;
25509;SDS011;13413;52.336;21.200;2023-04-01T05:04:08;42.30;;;32.40;;
25509;SDS011;13413;52.336;21.200;2023-04-01T05:07:02;42.90;;;32.90;;
25509;SDS011;13413;52.336;21.200;2023-04-01T05:09:56;45.60;;;32.60;;
25509;SDS011;13413;52.336;21.200;2023-04-01T05:12:50;38.80;;;31.50;;
25509;SDS011;13413;52.336;21.200;2023-04-01T05:15:44;41.20;;;31.10;;
25509;SDS011;13413;52.336;21.200;2023-04-01T05:18:38;45.40;;;30.80;;
25509;SDS011;13413;52.336;21.200;2023-04-01T05:21:32;42.70;;;31.00;;
25509;SDS011;13413;52.336;21.200;2023-04-01T05:24:26;37.10;;;28.40;;
25509;SDS011;13413;52.336;21.200;2023-04-01T05:27:20;40.10;;;30.30;;
25509;SDS011;13413;52.336;21.200;2023-04-01T05:30:14;37.70;;;29.30;;
25509;SDS011;13413;52.336;21.200;2023-04-01T05:33:08;34.80;;;27.30;;
25509;SDS011;13413;52.336;21.200;2023-04-01T05:36:07;34.40;;;27.40;;
25509;SDS011;13413;52.336;21.200;2023-04-01T05:39:03;35.70;;;27.70;;
25509;SDS011;13413;52.336;21.200;2023-04-01T05:41:57;35.30;;;27.90;;
25509;SDS011;13413;52.336;21.200;2023-04-01T05:44:50;34.00;;;27.30;;
25509;SDS011;13413;52.336;21.200;2023-04-01T05:47:44;32.90;;;27.70;;
25509;SDS011;13413;52.336;21.200;2023-04-01T05:50:39;36.80;;;28.10;;
25509;SDS011;13413;52.336;21.200;2023-04-01T05:53:33;37.10;;;29.10;;
25509;SDS011;13413;52.336;21.200;2023-04-01T05:56:27;34.50;;;27.60;;
25509;SDS011;13413;52.336;21.200;2023-04-01T05:59:21;35.50;;;27.60;;
25509;SDS011;13413;52.336;21.200;2023-04-01T06:05:14;37.70;;;28.70;;
25509;SDS011;13413;52.336;21.200;2023-04-01T06:08:17;33.90;;;27.30;;
25509;SDS011;13413;52.336;21.200;2023-04-01T06:14:28;32.60;;;26.80;;
25509;SDS011;13413;52.336;21.200;2023-04-01T06:17:34;28.30;;;23.20;;
25509;SDS011;13413;52.336;21.200;2023-04-01T06:20:44;29.80;;;23.60;;
25509;SDS011;13413;52.336;21.200;2023-04-01T06:23:51;26.70;;;22.70;;
25509;SDS011;13413;52.336;21.200;2023-04-01T06:26:59;27.30;;;22.30;;
25509;SDS011;13413;52.336;21.200;2023-04-01T06:30:05;26.50;;;22.80;;
25509;SDS011;13413;52.336;21.200;2023-04-01T06:33:19;10.40;;;9.50;;
25509;SDS011;13413;52.336;21.200;2023-04-01T06:39:24;23.10;;;20.30;;
25509;SDS011;13413;52.336;21.200;2023-04-01T06:42:38;23.70;;;20.10;;
25509;SDS011;13413;52.336;21.200;2023-04-01T06:45:44;26.00;;;21.50;;
25509;SDS011;13413;52.336;21.200;2023-04-01T06:48:53;25.60;;;22.10;;
25509;SDS011;13413;52.336;21.200;2023-04-01T06:51:59;27.60;;;22.60;;
25509;SDS011;13413;52.336;21.200;2023-04-01T06:55:06;26.20;;;21.20;;
25509;SDS011;13413;52.336;21.200;2023-04-01T06:58:16;26.80;;;18.40;;
25509;SDS011;13413;52.336;21.200;2023-04-01T07:01:14;21.90;;;18.10;;
25509;SDS011;13413;52.336;21.200;2023-04-01T07:07:10;18.20;;;14.50;;
25509;SDS011;13413;52.336;21.200;2023-04-01T07:10:14;17.60;;;15.00;;
25509;SDS011;13413;52.336;21.200;2023-04-01T07:13:13;13.50;;;12.00;;
25509;SDS011;13413;52.336;21.200;2023-04-01T07:16:12;12.60;;;11.30;;
25509;SDS011;13413;52.336;21.200;2023-04-01T07:19:12;11.70;;;9.80;;
25509;SDS011;13413;52.336;21.200;2023-04-01T07:22:19;9.40;;;7.80;;
25509;SDS011;13413;52.336;21.200;2023-04-01T07:25:18;12.50;;;7.80;;
25509;SDS011;13413;52.336;21.200;2023-04-01T07:28:16;11.80;;;8.50;;
25509;SDS011;13413;52.336;21.200;2023-04-01T07:31:33;10.70;;;9.10;;
25509;SDS011;13413;52.336;21.200;2023-04-01T07:34:43;9.30;;;7.90;;
25509;SDS011;13413;52.336;21.200;2023-04-01T07:37:48;10.60;;;8.50;;
25509;SDS011;13413;52.336;21.200;2023-04-01T07:40:52;10.10;;;9.10;;
25509;SDS011;13413;52.336;21.200;2023-04-01T07:43:58;11.90;;;9.60;;
25509;SDS011;13413;52.336;21.200;2023-04-01T07:47:01;9.70;;;8.70;;
25509;SDS011;13413;52.336;21.200;2023-04-01T07:50:13;8.90;;;7.80;;
25509;SDS011;13413;52.336;21.200;2023-04-01T07:53:15;9.20;;;7.20;;
25509;SDS011;13413;52.336;21.200;2023-04-01T07:56:17;11.20;;;7.20;;
25509;SDS011;13413;52.336;21.200;2023-04-01T07:59:17;9.00;;;6.80;;
25509;SDS011;13413;52.336;21.200;2023-04-01T08:02:22;5.40;;;4.90;;
25509;SDS011;13413;52.336;21.200;2023-04-01T08:05:27;7.10;;;5.80;;
25509;SDS011;13413;52.336;21.200;2023-04-01T08:08:28;5.70;;;4.60;;
25509;SDS011;13413;52.336;21.200;2023-04-01T08:11:39;6.20;;;5.60;;
25509;SDS011;13413;52.336;21.200;2023-04-01T08:14:46;6.90;;;6.20;;
25509;SDS011;13413;52.336;21.200;2023-04-01T08:17:48;10.30;;;7.40;;
25509;SDS011;13413;52.336;21.200;2023-04-01T08:20:53;8.60;;;7.70;;
25509;SDS011;13413;52.336;21.200;2023-04-01T08:23:51;8.40;;;7.60;;
25509;SDS011;13413;52.336;21.200;2023-04-01T08:26:49;10.70;;;8.40;;
25509;SDS011;13413;52.336;21.200;2023-04-01T08:29:48;13.60;;;10.00;;
25509;SDS011;13413;52.336;21.200;2023-04-01T08:32:49;10.90;;;9.80;;
25509;SDS011;13413;52.336;21.200;2023-04-01T08:35:49;11.80;;;10.70;;
25509;SDS011;13413;52.336;21.200;2023-04-01T08:38:49;12.70;;;10.80;;
25509;SDS011;13413;52.336;21.200;2023-04-01T08:41:52;17.00;;;12.30;;
25509;SDS011;13413;52.336;21.200;2023-04-01T08:45:17;15.10;;;12.60;;
25509;SDS011;13413;52.336;21.200;2023-04-01T08:48:24;14.50;;;12.90;;
25509;SDS011;13413;52.336;21.200;2023-04-01T09:00:18;19.80;;;17.60;;
25509;SDS011;13413;52.336;21.200;2023-04-01T09:03:26;20.50;;;17.00;;
25509;SDS011;13413;52.336;21.200;2023-04-01T09:06:41;23.10;;;19.00;;
25509;SDS011;13413;52.336;21.200;2023-04-01T09:13:31;23.20;;;19.40;;
25509;SDS011;13413;52.336;21.200;2023-04-01T09:16:53;19.10;;;16.70;;
25509;SDS011;13413;52.336;21.200;2023-04-01T09:20:05;21.80;;;19.10;;
25509;SDS011;13413;52.336;21.200;2023-04-01T09:23:21;20.60;;;17.40;;
25509;SDS011;13413;52.336;21.200;2023-04-01T09:26:37;20.90;;;17.10;;
25509;SDS011;13413;52.336;21.200;2023-04-01T09:29:53;22.30;;;18.00;;
25509;SDS011;13413;52.336;21.200;2023-04-01T09:33:20;18.50;;;16.50;;
25509;SDS011;13413;52.336;21.200;2023-04-01T09:36:38;19.90;;;16.60;;
25509;SDS011;13413;52.336;21.200;2023-04-01T09:40:08;19.70;;;16.90;;
25509;SDS011;13413;52.336;21.200;2023-04-01T09:43:29;21.80;;;17.30;;
25509;SDS011;13413;52.336;21.200;2023-04-01T09:46:51;29.40;;;22.30;;
25509;SDS011;13413;52.336;21.200;2023-04-01T09:50:03;19.50;;;15.70;;
25509;SDS011;13413;52.336;21.200;2023-04-01T09:53:19;13.20;;;11.40;;
25509;SDS011;13413;52.336;21.200;2023-04-01T10:07:16;16.50;;;14.40;;
25509;SDS011;13413;52.336;21.200;2023-04-01T10:10:42;19.10;;;15.90;;
25509;SDS011;13413;52.336;21.200;2023-04-01T10:14:13;21.10;;;15.60;;
25509;SDS011;13413;52.336;21.200;2023-04-01T10:17:28;20.20;;;15.40;;
25509;SDS011;13413;52.336;21.200;2023-04-01T10:21:00;16.50;;;13.40;;
25509;SDS011;13413;52.336;21.200;2023-04-01T10:27:31;18.10;;;13.70;;
25509;SDS011;13413;52.336;21.200;2023-04-01T10:34:12;17.20;;;13.60;;
25509;SDS011;13413;52.336;21.200;2023-04-01T10:37:43;15.00;;;13.20;;
25509;SDS011;13413;52.336;21.200;2023-04-01T10:41:13;21.00;;;13.00;;
25509;SDS011;13413;52.336;21.200;2023-04-01T10:44:36;16.00;;;12.00;;
25509;SDS011;13413;52.336;21.200;2023-04-01T10:47:46;7.10;;;6.30;;
25509;SDS011;13413;52.336;21.200;2023-04-01T10:54:21;6.20;;;4.70;;
25509;SDS011;13413;52.336;21.200;2023-04-01T10:57:51;7.20;;;6.50;;
25509;SDS011;13413;52.336;21.200;2023-04-01T11:01:09;8.90;;;7.40;;
25509;SDS011;13413;52.336;21.200;2023-04-01T11:18:19;13.00;;;10.70;;
25509;SDS011;13413;52.336;21.200;2023-04-01T11:21:55;11.90;;;10.00;;
25509;SDS011;13413;52.336;21.200;2023-04-01T11:31:55;10.60;;;9.30;;
25509;SDS011;13413;52.336;21.200;2023-04-01T11:34:59;11.80;;;9.10;;
25509;SDS011;13413;52.336;21.200;2023-04-01T11:38:12;10.00;;;8.30;;
25509;SDS011;13413;52.336;21.200;2023-04-01T11:41:22;10.10;;;8.90;;
25509;SDS011;13413;52.336;21.200;2023-04-01T11:44:23;10.40;;;8.00;;
25509;SDS011;13413;52.336;21.200;2023-04-01T11:47:24;9.40;;;6.90;;
25509;SDS011;13413;52.336;21.200;2023-04-01T11:50:33;7.50;;;6.00;;
25509;SDS011;13413;52.336;21.200;2023-04-01T11:53:43;6.00;;;5.40;;
25509;SDS011;13413;52.336;21.200;2023-04-01T11:56:49;7.90;;;5.70;;
25509;SDS011;13413;52.336;21.200;2023-04-01T12:03:26;6.10;;;5.30;;
25509;SDS011;13413;52.336;21.200;2023-04-01T12:06:37;11.10;;;7.70;;
25509;SDS011;13413;52.336;21.200;2023-04-01T12:09:40;13.90;;;8.50;;
25509;SDS011;13413;52.336;21.200;2023-04-01T12:12:42;7.00;;;5.30;;
25509;SDS011;13413;52.336;21.200;2023-04-01T12:15:48;5.30;;;4.70;;
25509;SDS011;13413;52.336;21.200;2023-04-01T12:18:51;13.30;;;8.50;;
25509;SDS011;13413;52.336;21.200;2023-04-01T12:21:55;9.00;;;5.00;;
25509;SDS011;13413;52.336;21.200;2023-04-01T12:25:00;9.30;;;6.40;;
25509;SDS011;13413;52.336;21.200;2023-04-01T12:28:13;5.40;;;4.20;;
25509;SDS011;13413;52.336;21.200;2023-04-01T12:31:18;5.10;;;4.20;;
25509;SDS011;13413;52.336;21.200;2023-04-01T12:34:34;5.20;;;3.80;;
25509;SDS011;13413;52.336;21.200;2023-04-01T12:37:58;3.80;;;3.20;;
25509;SDS011;13413;52.336;21.200;2023-04-01T12:41:09;4.20;;;2.60;;
25509;SDS011;13413;52.336;21.200;2023-04-01T12:44:13;11.10;;;7.10;;
25509;SDS011;13413;52.336;21.200;2023-04-01T12:47:23;3.10;;;2.10;;
25509;SDS011;13413;52.336;21.200;2023-04-01T12:50:35;1.60;;;1.50;;
25509;SDS011;13413;52.336;21.200;2023-04-01T12:53:49;7.90;;;5.00;;
25509;SDS011;13413;52.336;21.200;2023-04-01T12:57:06;8.80;;;5.80;;
25509;SDS011;13413;52.336;21.200;2023-04-01T13:00:30;5.80;;;4.70;;
25509;SDS011;13413;52.336;21.200;2023-04-01T13:03:46;4.60;;;2.60;;
25509;SDS011;13413;52.336;21.200;2023-04-01T13:36:16;5.70;;;4.40;;
25509;SDS011;13413;52.336;21.200;2023-04-01T13:39:23;7.30;;;4.90;;
25509;SDS011;13413;52.336;21.200;2023-04-01T13:42:28;5.50;;;4.90;;
25509;SDS011;13413;52.336;21.200;2023-04-01T13:45:32;5.50;;;4.30;;
25509;SDS011;13413;52.336;21.200;2023-04-01T13:48:43;5.00;;;4.30;;
25509;SDS011;13413;52.336;21.200;2023-04-01T13:51:56;4.20;;;3.80;;
25509;SDS011;13413;52.336;21.200;2023-04-01T14:09:19;5.50;;;4.70;;
25509;SDS011;13413;52.336;21.200;2023-04-01T14:12:27;6.30;;;5.30;;
25509;SDS011;13413;52.336;21.200;2023-04-01T14:15:38;6.70;;;6.00;;
25509;SDS011;13413;52.336;21.200;2023-04-01T14:18:50;6.90;;;5.40;;
25509;SDS011;13413;52.336;21.200;2023-04-01T14:21:56;28.10;;;14.20;;
25509;SDS011;13413;52.336;21.200;2023-04-01T14:25:03;16.00;;;10.60;;
25509;SDS011;13413;52.336;21.200;2023-04-01T14:28:16;33.20;;;26.40;;
25509;SDS011;13413;52.336;21.200;2023-04-01T14:31:21;16.70;;;12.20;;
25509;SDS011;13413;52.336;21.200;2023-04-01T14:34:26;24.70;;;17.80;;
25509;SDS011;13413;52.336;21.200;2023-04-01T14:37:39;54.10;;;33.00;;
25509;SDS011;13413;52.336;21.200;2023-04-01T14:40:51;50.40;;;29.10;;
25509;SDS011;13413;52.336;21.200;2023-04-01T14:43:55;49.00;;;27.50;;
25509;SDS011;13413;52.336;21.200;2023-04-01T14:50:21;31.30;;;25.40;;
25509;SDS011;13413;52.336;21.200;2023-04-01T14:53:26;15.70;;;12.90;;
25509;SDS011;13413;52.336;21.200;2023-04-01T14:56:39;13.90;;;11.50;;
25509;SDS011;13413;52.336;21.200;2023-04-01T14:59:34;14.00;;;9.70;;
25509;SDS011;13413;52.336;21.200;2023-04-01T15:02:44;11.90;;;8.10;;
25509;SDS011;13413;52.336;21.200;2023-04-01T15:05:49;12.70;;;10.00;;
25509;SDS011;13413;52.336;21.200;2023-04-01T15:08:46;12.40;;;10.00;;
25509;SDS011;13413;52.336;21.200;2023-04-01T15:11:53;26.70;;;17.80;;
25509;SDS011;13413;52.336;21.200;2023-04-01T15:15:03;20.20;;;15.70;;
25509;SDS011;13413;52.336;21.200;2023-04-01T15:18:13;16.20;;;10.90;;
25509;SDS011;13413;52.336;21.200;2023-04-01T15:21:25;18.30;;;14.70;;
25509;SDS011;13413;52.336;21.200;2023-04-01T15:24:52;16.80;;;13.10;;
25509;SDS011;13413;52.336;21.200;2023-04-01T15:28:01;14.50;;;12.10;;
25509;SDS011;13413;52.336;21.200;2023-04-01T15:31:04;13.50;;;9.80;;
25509;SDS011;13413;52.336;21.200;2023-04-01T15:34:21;12.80;;;9.00;;
25509;SDS011;13413;52.336;21.200;2023-04-01T15:37:26;16.40;;;12.50;;
25509;SDS011;13413;52.336;21.200;2023-04-01T15:40:30;12.90;;;9.80;;
25509;SDS011;13413;52.336;21.200;2023-04-01T15:43:30;11.40;;;8.60;;
25509;SDS011;13413;52.336;21.200;2023-04-01T15:46:39;10.00;;;8.10;;
25509;SDS011;13413;52.336;21.200;2023-04-01T15:49:38;9.50;;;8.20;;
25509;SDS011;13413;52.336;21.200;2023-04-01T15:52:38;9.00;;;6.40;;
25509;SDS011;13413;52.336;21.200;2023-04-01T15:55:42;16.80;;;6.70;;
25509;SDS011;13413;52.336;21.200;2023-04-01T16:01:50;9.90;;;7.20;;
25509;SDS011;13413;52.336;21.200;2023-04-01T16:04:54;7.70;;;6.40;;
25509;SDS011;13413;52.336;21.200;2023-04-01T16:07:55;7.90;;;7.10;;
25509;SDS011;13413;52.336;21.200;2023-04-01T16:11:06;8.80;;;6.80;;
25509;SDS011;13413;52.336;21.200;2023-04-01T16:14:11;14.10;;;12.10;;
25509;SDS011;13413;52.336;21.200;2023-04-01T16:17:23;13.00;;;8.30;;
25509;SDS011;13413;52.336;21.200;2023-04-01T16:28:54;15.70;;;8.90;;
25509;SDS011;13413;52.336;21.200;2023-04-01T16:31:58;15.70;;;10.10;;
25509;SDS011;13413;52.336;21.200;2023-04-01T16:35:16;18.80;;;8.20;;
25509;SDS011;13413;52.336;21.200;2023-04-01T16:38:18;13.00;;;9.70;;
25509;SDS011;13413;52.336;21.200;2023-04-01T16:41:19;12.60;;;9.10;;
25509;SDS011;13413;52.336;21.200;2023-04-01T16:44:23;13.20;;;9.40;;
25509;SDS011;13413;52.336;21.200;2023-04-01T16:47:19;12.80;;;9.70;;
25509;SDS011;13413;52.336;21.200;2023-04-01T16:50:17;12.80;;;9.40;;
25509;SDS011;13413;52.336;21.200;2023-04-01T16:53:16;7.80;;;5.50;;
25509;SDS011;13413;52.336;21.200;2023-04-01T16:56:17;9.10;;;6.40;;
25509;SDS011;13413;52.336;21.200;2023-04-01T16:59:16;9.50;;;7.20;;
25509;SDS011;13413;52.336;21.200;2023-04-01T17:02:17;9.50;;;7.40;;
25509;SDS011;13413;52.336;21.200;2023-04-01T17:05:14;9.70;;;7.40;;
25509;SDS011;13413;52.336;21.200;2023-04-01T17:08:10;12.50;;;9.70;;
25509;SDS011;13413;52.336;21.200;2023-04-01T17:11:16;14.10;;;8.90;;
25509;SDS011;13413;52.336;21.200;2023-04-01T17:14:16;18.50;;;11.80;;
25509;SDS011;13413;52.336;21.200;2023-04-01T17:17:19;17.70;;;12.30;;
25509;SDS011;13413;52.336;21.200;2023-04-01T17:20:26;16.10;;;12.60;;
25509;SDS011;13413;52.336;21.200;2023-04-01T17:23:32;15.20;;;9.60;;
25509;SDS011;13413;52.336;21.200;2023-04-01T17:26:33;14.80;;;10.10;;
25509;SDS011;13413;52.336;21.200;2023-04-01T17:29:37;21.60;;;11.40;;
25509;SDS011;13413;52.336;21.200;2023-04-01T17:32:39;20.00;;;11.80;;
25509;SDS011;13413;52.336;21.200;2023-04-01T17:35:49;23.40;;;12.60;;
25509;SDS011;13413;52.336;21.200;2023-04-01T17:38:56;29.00;;;15.50;;
25509;SDS011;13413;52.336;21.200;2023-04-01T17:42:09;40.30;;;19.40;;
25509;SDS011;13413;52.336;21.200;2023-04-01T17:45:08;40.80;;;21.80;;
25509;SDS011;13413;52.336;21.200;2023-04-01T17:48:15;36.10;;;19.50;;
25509;SDS011;13413;52.336;21.200;2023-04-01T17:51:19;26.90;;;18.70;;
25509;SDS011;13413;52.336;21.200;2023-04-01T17:54:26;24.30;;;16.60;;
25509;SDS011;13413;52.336;21.200;2023-04-01T17:57:38;24.40;;;16.20;;
25509;SDS011;13413;52.336;21.200;2023-04-01T18:00:46;18.10;;;12.20;;
25509;SDS011;13413;52.336;21.200;2023-04-01T18:07:22;57.20;;;43.00;;
25509;SDS011;13413;52.336;21.200;2023-04-01T18:10:37;23.60;;;16.50;;
25509;SDS011;13413;52.336;21.200;2023-04-01T18:13:48;20.40;;;16.00;;
25509;SDS011;13413;52.336;21.200;2023-04-01T18:17:09;10.40;;;7.70;;
25509;SDS011;13413;52.336;21.200;2023-04-01T18:20:22;15.20;;;10.70;;
25509;SDS011;13413;52.336;21.200;2023-04-01T18:23:27;15.30;;;9.40;;
25509;SDS011;13413;52.336;21.200;2023-04-01T18:26:28;12.50;;;9.60;;
25509;SDS011;13413;52.336;21.200;2023-04-01T18:29:26;15.10;;;11.10;;
25509;SDS011;13413;52.336;21.200;2023-04-01T18:32:31;18.90;;;11.40;;
25509;SDS011;13413;52.336;21.200;2023-04-01T18:35:33;17.90;;;11.90;;
25509;SDS011;13413;52.336;21.200;2023-04-01T18:49:23;39.10;;;29.30;;
25509;SDS011;13413;52.336;21.200;2023-04-01T18:52:22;38.00;;;28.00;;
25509;SDS011;13413;52.336;21.200;2023-04-01T18:55:36;33.50;;;25.70;;
25509;SDS011;13413;52.336;21.200;2023-04-01T18:58:34;30.40;;;21.90;;
25509;SDS011;13413;52.336;21.200;2023-04-01T19:01:40;36.70;;;25.10;;
25509;SDS011;13413;52.336;21.200;2023-04-01T19:04:43;25.90;;;17.70;;
25509;SDS011;13413;52.336;21.200;2023-04-01T19:07:43;20.10;;;15.70;;
25509;SDS011;13413;52.336;21.200;2023-04-01T19:10:39;22.40;;;16.80;;
25509;SDS011;13413;52.336;21.200;2023-04-01T19:13:42;22.80;;;16.50;;
25509;SDS011;13413;52.336;21.200;2023-04-01T19:16:48;22.30;;;16.20;;
25509;SDS011;13413;52.336;21.200;2023-04-01T19:19:50;19.50;;;15.40;;
25509;SDS011;13413;52.336;21.200;2023-04-01T19:23:09;19.40;;;15.60;;
25509;SDS011;13413;52.336;21.200;2023-04-01T19:26:28;18.80;;;15.40;;
25509;SDS011;13413;52.336;21.200;2023-04-01T19:29:29;22.40;;;16.20;;
25509;SDS011;13413;52.336;21.200;2023-04-01T19:32:37;24.50;;;15.10;;
25509;SDS011;13413;52.336;21.200;2023-04-01T19:35:41;19.80;;;15.00;;
25509;SDS011;13413;52.336;21.200;2023-04-01T19:38:40;20.40;;;14.70;;
25509;SDS011;13413;52.336;21.200;2023-04-01T19:41:45;17.10;;;13.40;;
25509;SDS011;13413;52.336;21.200;2023-04-01T19:44:50;18.40;;;14.00;;
25509;SDS011;13413;52.336;21.200;2023-04-01T19:47:57;21.90;;;16.50;;
25509;SDS011;13413;52.336;21.200;2023-04-01T19:51:00;17.40;;;13.90;;
25509;SDS011;13413;52.336;21.200;2023-04-01T19:54:01;18.00;;;13.70;;
25509;SDS011;13413;52.336;21.200;2023-04-01T19:57:09;19.00;;;14.70;;
25509;SDS011;13413;52.336;21.200;2023-04-01T20:00:18;25.10;;;17.80;;
25509;SDS011;13413;52.336;21.200;2023-04-01T20:03:22;24.50;;;17.40;;
25509;SDS011;13413;52.336;21.200;2023-04-01T20:06:23;27.40;;;19.30;;
25509;SDS011;13413;52.336;21.200;2023-04-01T20:09:31;23.20;;;17.10;;
25509;SDS011;13413;52.336;21.200;2023-04-01T20:12:40;22.60;;;16.20;;
25509;SDS011;13413;52.336;21.200;2023-04-01T20:15:39;19.30;;;14.10;;
25509;SDS011;13413;52.336;21.200;2023-04-01T20:18:41;15.70;;;12.00;;
25509;SDS011;13413;52.336;21.200;2023-04-01T20:21:42;14.00;;;11.90;;
25509;SDS011;13413;52.336;21.200;2023-04-01T20:24:41;14.40;;;12.60;;
25509;SDS011;13413;52.336;21.200;2023-04-01T20:27:37;14.40;;;10.80;;
25509;SDS011;13413;52.336;21.200;2023-04-01T20:30:41;16.40;;;12.20;;
25509;SDS011;13413;52.336;21.200;2023-04-01T20:34:01;12.80;;;10.30;;
25509;SDS011;13413;52.336;21.200;2023-04-01T20:37:23;13.90;;;9.60;;
25509;SDS011;13413;52.336;21.200;2023-04-01T20:40:33;11.80;;;8.80;;